sensor_id;sensor_type;location;lat;lon;timestamp;pressure;altitude;pressure_sealevel;temperature;humidity
22753;BME280;11543;43.144;24.684;2023-08-06T00:01:50;97562.81;;;26.01;50.79
22753;BME280;11543;43.144;24.684;2023-08-06T00:04:16;97563.44;;;25.88;50.84
22753;BME280;11543;43.144;24.684;2023-08-06T00:06:41;97550.56;;;25.79;50.93
22753;BME280;11543;43.144;24.684;2023-08-06T00:09:07;97541.56;;;25.68;50.91
22753;BME280;11543;43.144;24.684;2023-08-06T00:11:32;97555.88;;;25.60;51.71
22753;BME280;11543;43.144;24.684;2023-08-06T00:13:58;97559.16;;;25.62;51.67
22753;BME280;11543;43.144;24.684;2023-08-06T00:16:23;97557.25;;;25.62;51.64
22753;BME280;11543;43.144;24.684;2023-08-06T00:18:49;97572.91;;;25.57;52.04
22753;BME280;11543;43.144;24.684;2023-08-06T00:21:14;97564.16;;;25.55;51.91
22753;BME280;11543;43.144;24.684;2023-08-06T00:23:43;97538.94;;;25.43;52.17
22753;BME280;11543;43.144;24.684;2023-08-06T00:26:08;97562.75;;;25.57;51.67
22753;BME280;11543;43.144;24.684;2023-08-06T00:28:34;97544.94;;;25.50;52.09
22753;BME280;11543;43.144;24.684;2023-08-06T00:30:59;97543.84;;;25.51;51.48
22753;BME280;11543;43.144;24.684;2023-08-06T00:33:25;97558.44;;;25.41;52.17
22753;BME280;11543;43.144;24.684;2023-08-06T00:35:51;97569.94;;;25.48;51.87
22753;BME280;11543;43.144;24.684;2023-08-06T00:38:16;97559.81;;;25.44;51.72
22753;BME280;11543;43.144;24.684;2023-08-06T00:40:42;97559.78;;;25.49;52.24
22753;BME280;11543;43.144;24.684;2023-08-06T00:43:08;97540.06;;;25.36;52.29
22753;BME280;11543;43.144;24.684;2023-08-06T00:45:36;97553.72;;;25.52;52.02
22753;BME280;11543;43.144;24.684;2023-08-06T00:48:05;97560.28;;;25.56;51.81
22753;BME280;11543;43.144;24.684;2023-08-06T00:50:32;97557.84;;;25.54;52.31
22753;BME280;11543;43.144;24.684;2023-08-06T00:52:57;97544.22;;;25.29;52.48
22753;BME280;11543;43.144;24.684;2023-08-06T00:55:24;97535.75;;;25.20;52.83
22753;BME280;11543;43.144;24.684;2023-08-06T00:57:49;97548.38;;;25.21;52.96
22753;BME280;11543;43.144;24.684;2023-08-06T01:00:16;97550.03;;;25.22;52.71
22753;BME280;11543;43.144;24.684;2023-08-06T01:02:42;97544.53;;;25.22;52.66
22753;BME280;11543;43.144;24.684;2023-08-06T01:05:07;97533.56;;;25.12;52.64
22753;BME280;11543;43.144;24.684;2023-08-06T01:07:51;97537.97;;;25.08;52.83
22753;BME280;11543;43.144;24.684;2023-08-06T01:13:46;97536.34;;;25.07;52.85
22753;BME280;11543;43.144;24.684;2023-08-06T01:16:17;97527.56;;;25.05;53.06
22753;BME280;11543;43.144;24.684;2023-08-06T01:18:43;97542.88;;;25.21;52.54
22753;BME280;11543;43.144;24.684;2023-08-06T01:21:13;97535.22;;;25.13;52.92
22753;BME280;11543;43.144;24.684;2023-08-06T01:23:39;97536.31;;;25.17;52.97
22753;BME280;11543;43.144;24.684;2023-08-06T01:31:30;97512.63;;;25.36;52.42
22753;BME280;11543;43.144;24.684;2023-08-06T01:33:58;97510.94;;;25.40;52.07
22753;BME280;11543;43.144;24.684;2023-08-06T01:36:23;97509.28;;;25.45;52.12
22753;BME280;11543;43.144;24.684;2023-08-06T01:38:51;97491.28;;;25.23;52.43
22753;BME280;11543;43.144;24.684;2023-08-06T01:41:17;97494.88;;;25.19;52.47
22753;BME280;11543;43.144;24.684;2023-08-06T01:43:43;97490.19;;;25.19;52.21
22753;BME280;11543;43.144;24.684;2023-08-06T01:46:08;97493.47;;;25.21;52.25
22753;BME280;11543;43.144;24.684;2023-08-06T01:48:34;97506.09;;;25.22;52.44
22753;BME280;11543;43.144;24.684;2023-08-06T01:51:00;97490.22;;;25.09;52.52
22753;BME280;11543;43.144;24.684;2023-08-06T01:53:26;97474.28;;;25.11;52.31
22753;BME280;11543;43.144;24.684;2023-08-06T01:55:51;97484.97;;;25.23;52.32
22753;BME280;11543;43.144;24.684;2023-08-06T01:58:17;97467.44;;;25.08;52.58
22753;BME280;11543;43.144;24.684;2023-08-06T02:00:42;97468.53;;;25.13;52.24
22753;BME280;11543;43.144;24.684;2023-08-06T02:03:08;97489.06;;;25.25;52.29
22753;BME280;11543;43.144;24.684;2023-08-06T02:05:33;97488.00;;;25.21;52.59
22753;BME280;11543;43.144;24.684;2023-08-06T02:07:59;97492.94;;;25.19;52.29
22753;BME280;11543;43.144;24.684;2023-08-06T02:10:24;97515.97;;;25.28;52.31
22753;BME280;11543;43.144;24.684;2023-08-06T02:12:50;97526.94;;;25.28;52.59
22753;BME280;11543;43.144;24.684;2023-08-06T02:15:15;97490.22;;;25.09;52.57
22753;BME280;11543;43.144;24.684;2023-08-06T02:17:41;97491.31;;;25.13;52.46
22753;BME280;11543;43.144;24.684;2023-08-06T02:20:06;97504.47;;;25.11;52.42
22753;BME280;11543;43.144;24.684;2023-08-06T02:22:32;97516.28;;;25.12;52.70
22753;BME280;11543;43.144;24.684;2023-08-06T02:24:58;97512.75;;;25.06;52.80
22753;BME280;11543;43.144;24.684;2023-08-06T02:27:24;97498.78;;;24.97;52.85
22753;BME280;11543;43.144;24.684;2023-08-06T02:29:49;97505.06;;;25.03;52.91
22753;BME280;11543;43.144;24.684;2023-08-06T02:32:15;97480.38;;;24.93;52.88
22753;BME280;11543;43.144;24.684;2023-08-06T02:34:40;97486.97;;;25.02;52.53
22753;BME280;11543;43.144;24.684;2023-08-06T02:37:06;97494.06;;;25.08;52.59
22753;BME280;11543;43.144;24.684;2023-08-06T02:39:31;97467.22;;;24.95;52.95
22753;BME280;11543;43.144;24.684;2023-08-06T02:41:58;97465.00;;;24.97;52.70
22753;BME280;11543;43.144;24.684;2023-08-06T02:44:27;97473.25;;;25.02;52.68
22753;BME280;11543;43.144;24.684;2023-08-06T02:46:53;97471.59;;;25.01;52.82
22753;BME280;11543;43.144;24.684;2023-08-06T02:49:18;97485.84;;;25.03;52.68
22753;BME280;11543;43.144;24.684;2023-08-06T02:51:47;97491.09;;;24.99;52.76
22753;BME280;11543;43.144;24.684;2023-08-06T02:54:12;97501.78;;;25.01;52.81
22753;BME280;11543;43.144;24.684;2023-08-06T02:56:37;97497.34;;;25.10;52.40
22753;BME280;11543;43.144;24.684;2023-08-06T02:59:03;97485.88;;;24.93;52.43
22753;BME280;11543;43.144;24.684;2023-08-06T03:01:29;97503.41;;;24.97;53.04
22753;BME280;11543;43.144;24.684;2023-08-06T03:03:55;97511.66;;;25.02;53.16
22753;BME280;11543;43.144;24.684;2023-08-06T03:06:20;97481.75;;;24.90;52.50
22753;BME280;11543;43.144;24.684;2023-08-06T03:08:46;97480.38;;;24.93;52.87
22753;BME280;11543;43.144;24.684;2023-08-06T03:11:11;97485.34;;;24.86;52.95
22753;BME280;11543;43.144;24.684;2023-08-06T03:13:37;97507.28;;;24.86;53.14
22753;BME280;11543;43.144;24.684;2023-08-06T03:16:02;97502.91;;;24.90;53.40
22753;BME280;11543;43.144;24.684;2023-08-06T03:18:28;97504.53;;;24.91;53.38
22753;BME280;11543;43.144;24.684;2023-08-06T03:20:54;97490.84;;;24.86;52.87
22753;BME280;11543;43.144;24.684;2023-08-06T03:23:19;97487.56;;;24.78;53.15
22753;BME280;11543;43.144;24.684;2023-08-06T03:25:45;97500.72;;;24.82;53.55
22753;BME280;11543;43.144;24.684;2023-08-06T03:28:11;97494.66;;;24.95;53.09
22753;BME280;11543;43.144;24.684;2023-08-06T03:30:37;97506.75;;;24.89;53.16
22753;BME280;11543;43.144;24.684;2023-08-06T03:33:03;97509.75;;;24.87;53.50
22753;BME280;11543;43.144;24.684;2023-08-06T03:35:28;97503.97;;;24.94;52.82
22753;BME280;11543;43.144;24.684;2023-08-06T03:37:54;97534.69;;;25.06;53.15
22753;BME280;11543;43.144;24.684;2023-08-06T03:40:19;97520.16;;;25.00;52.95
22753;BME280;11543;43.144;24.684;2023-08-06T03:42:45;97530.31;;;25.00;53.04
22753;BME280;11543;43.144;24.684;2023-08-06T03:45:10;97512.53;;;24.82;53.20
22753;BME280;11543;43.144;24.684;2023-08-06T03:47:35;97534.72;;;24.86;53.38
22753;BME280;11543;43.144;24.684;2023-08-06T03:50:01;97539.66;;;24.89;53.51
22753;BME280;11543;43.144;24.684;2023-08-06T03:52:26;97529.78;;;24.93;53.59
22753;BME280;11543;43.144;24.684;2023-08-06T03:54:52;97516.63;;;24.85;53.67
22753;BME280;11543;43.144;24.684;2023-08-06T03:57:17;97512.22;;;24.94;53.50
22753;BME280;11543;43.144;24.684;2023-08-06T03:59:43;97515.25;;;24.97;53.68
22753;BME280;11543;43.144;24.684;2023-08-06T04:02:08;97532.22;;;25.09;53.35
22753;BME280;11543;43.144;24.684;2023-08-06T04:04:34;97507.00;;;25.02;52.96
22753;BME280;11543;43.144;24.684;2023-08-06T04:06:59;97506.13;;;25.12;53.60
22753;BME280;11543;43.144;24.684;2023-08-06T04:09:27;97494.88;;;25.08;53.61
22753;BME280;11543;43.144;24.684;2023-08-06T04:11:53;97500.06;;;25.20;53.05
22753;BME280;11543;43.144;24.684;2023-08-06T04:14:18;97488.03;;;25.16;53.19
22753;BME280;11543;43.144;24.684;2023-08-06T04:16:44;97497.91;;;25.17;53.11
22753;BME280;11543;43.144;24.684;2023-08-06T04:19:09;97499.53;;;25.18;53.19
22753;BME280;11543;43.144;24.684;2023-08-06T04:21:35;97486.63;;;25.14;53.06
22753;BME280;11543;43.144;24.684;2023-08-06T04:24:00;97524.16;;;25.33;53.10
22753;BME280;11543;43.144;24.684;2023-08-06T04:26:26;97507.19;;;25.26;53.19
22753;BME280;11543;43.144;24.684;2023-08-06T04:28:52;97498.94;;;25.31;52.93
22753;BME280;11543;43.144;24.684;2023-08-06T04:31:17;97508.47;;;25.44;53.04
22753;BME280;11543;43.144;24.684;2023-08-06T04:33:43;97509.84;;;25.42;53.11
22753;BME280;11543;43.144;24.684;2023-08-06T04:36:08;97497.53;;;25.34;53.21
22753;BME280;11543;43.144;24.684;2023-08-06T04:38:34;97506.56;;;25.39;53.37
22753;BME280;11543;43.144;24.684;2023-08-06T04:40:59;97511.50;;;25.43;53.21
22753;BME280;11543;43.144;24.684;2023-08-06T04:43:25;97528.72;;;25.53;53.06
22753;BME280;11543;43.144;24.684;2023-08-06T04:45:53;97524.06;;;25.54;53.33
22753;BME280;11543;43.144;24.684;2023-08-06T04:48:18;97530.38;;;25.54;53.58
22753;BME280;11543;43.144;24.684;2023-08-06T04:50:48;97504.38;;;25.36;53.67
22753;BME280;11543;43.144;24.684;2023-08-06T04:53:15;97497.81;;;25.32;54.11
22753;BME280;11543;43.144;24.684;2023-08-06T04:55:44;97508.47;;;25.44;54.11
22753;BME280;11543;43.144;24.684;2023-08-06T04:58:10;97493.94;;;25.38;54.13
22753;BME280;11543;43.144;24.684;2023-08-06T05:00:36;97505.97;;;25.48;54.04
22753;BME280;11543;43.144;24.684;2023-08-06T05:03:02;97499.94;;;25.46;54.28
22753;BME280;11543;43.144;24.684;2023-08-06T05:05:28;97497.19;;;25.46;54.22
22753;BME280;11543;43.144;24.684;2023-08-06T05:07:54;97507.81;;;25.57;54.08
22753;BME280;11543;43.144;24.684;2023-08-06T05:10:20;97500.38;;;25.63;53.97
22753;BME280;11543;43.144;24.684;2023-08-06T05:12:46;97489.72;;;25.56;54.86
22753;BME280;11543;43.144;24.684;2023-08-06T05:15:11;97487.22;;;25.60;54.39
22753;BME280;11543;43.144;24.684;2023-08-06T05:17:37;97492.94;;;25.68;54.38
22753;BME280;11543;43.144;24.684;2023-08-06T05:20:03;97502.19;;;25.83;54.29
22753;BME280;11543;43.144;24.684;2023-08-06T05:22:28;97502.69;;;25.90;53.82
22753;BME280;11543;43.144;24.684;2023-08-06T05:24:55;97493.00;;;25.97;53.44
22753;BME280;11543;43.144;24.684;2023-08-06T05:27:20;97504.47;;;26.10;53.70
22753;BME280;11543;43.144;24.684;2023-08-06T05:29:46;97498.31;;;26.23;53.51
22753;BME280;11543;43.144;24.684;2023-08-06T05:32:12;97462.63;;;26.18;53.42
22753;BME280;11543;43.144;24.684;2023-08-06T05:34:38;97472.41;;;26.34;53.23
22753;BME280;11543;43.144;24.684;2023-08-06T05:37:03;97472.06;;;26.41;53.36
22753;BME280;11543;43.144;24.684;2023-08-06T05:39:29;97456.84;;;26.48;53.00
22753;BME280;11543;43.144;24.684;2023-08-06T05:41:56;97460.25;;;26.64;52.39
22753;BME280;11543;43.144;24.684;2023-08-06T05:44:29;97470.44;;;26.63;52.78
22753;BME280;11543;43.144;24.684;2023-08-06T05:46:55;97464.09;;;26.63;52.69
22753;BME280;11543;43.144;24.684;2023-08-06T05:49:20;97483.41;;;26.82;52.64
22753;BME280;11543;43.144;24.684;2023-08-06T05:51:46;97471.91;;;26.80;52.27
22753;BME280;11543;43.144;24.684;2023-08-06T05:54:12;97495.97;;;26.93;52.25
22753;BME280;11543;43.144;24.684;2023-08-06T05:56:38;97483.91;;;26.89;52.22
22753;BME280;11543;43.144;24.684;2023-08-06T05:59:03;97494.34;;;26.92;52.54
22753;BME280;11543;43.144;24.684;2023-08-06T06:01:29;97488.09;;;26.81;52.66
22753;BME280;11543;43.144;24.684;2023-08-06T06:03:54;97483.47;;;26.77;52.82
22753;BME280;11543;43.144;24.684;2023-08-06T06:06:19;97486.19;;;26.82;52.48
22753;BME280;11543;43.144;24.684;2023-08-06T06:08:47;97461.91;;;26.89;52.48
22753;BME280;11543;43.144;24.684;2023-08-06T06:11:12;97453.09;;;26.87;52.73
22753;BME280;11543;43.144;24.684;2023-08-06T06:13:38;97457.88;;;27.05;52.20
22753;BME280;11543;43.144;24.684;2023-08-06T06:16:03;97430.88;;;27.07;52.44
22753;BME280;11543;43.144;24.684;2023-08-06T06:18:30;97437.88;;;27.18;52.01
22753;BME280;11543;43.144;24.684;2023-08-06T06:20:57;97462.97;;;27.36;51.55
22753;BME280;11543;43.144;24.684;2023-08-06T06:23:24;97462.28;;;27.44;51.12
22753;BME280;11543;43.144;24.684;2023-08-06T06:25:50;97462.16;;;27.54;51.06
22753;BME280;11543;43.144;24.684;2023-08-06T06:28:18;97436.53;;;27.53;50.58
22753;BME280;11543;43.144;24.684;2023-08-06T06:30:44;97421.72;;;27.49;50.57
22753;BME280;11543;43.144;24.684;2023-08-06T06:33:10;97436.16;;;27.60;50.68
22753;BME280;11543;43.144;24.684;2023-08-06T06:35:35;97447.66;;;27.67;50.41
22753;BME280;11543;43.144;24.684;2023-08-06T06:38:01;97445.00;;;27.57;50.61
22753;BME280;11543;43.144;24.684;2023-08-06T06:40:28;97456.72;;;27.68;50.71
22753;BME280;11543;43.144;24.684;2023-08-06T06:42:53;97457.66;;;27.58;50.87
22753;BME280;11543;43.144;24.684;2023-08-06T06:45:18;97470.22;;;27.69;50.76
22753;BME280;11543;43.144;24.684;2023-08-06T06:47:44;97454.50;;;27.70;50.45
22753;BME280;11543;43.144;24.684;2023-08-06T06:50:09;97463.22;;;27.77;50.16
22753;BME280;11543;43.144;24.684;2023-08-06T06:52:35;97456.44;;;27.69;50.72
22753;BME280;11543;43.144;24.684;2023-08-06T06:55:00;97406.00;;;27.50;50.53
22753;BME280;11543;43.144;24.684;2023-08-06T06:57:26;97404.00;;;27.55;50.34
22753;BME280;11543;43.144;24.684;2023-08-06T06:59:51;97414.41;;;27.58;50.39
22753;BME280;11543;43.144;24.684;2023-08-06T07:02:17;97408.47;;;27.51;50.42
22753;BME280;11543;43.144;24.684;2023-08-06T07:04:42;97430.13;;;27.58;50.58
22753;BME280;11543;43.144;24.684;2023-08-06T07:07:08;97420.31;;;27.52;50.55
22753;BME280;11543;43.144;24.684;2023-08-06T07:09:33;97438.38;;;27.58;50.49
22753;BME280;11543;43.144;24.684;2023-08-06T07:11:59;97462.66;;;27.56;50.59
22753;BME280;11543;43.144;24.684;2023-08-06T07:14:28;97482.09;;;27.46;50.78
22753;BME280;11543;43.144;24.684;2023-08-06T07:16:53;97519.47;;;27.52;50.70
22753;BME280;11543;43.144;24.684;2023-08-06T07:19:19;97527.50;;;27.29;51.76
22753;BME280;11543;43.144;24.684;2023-08-06T07:21:45;97524.22;;;27.27;54.71
22753;BME280;11543;43.144;24.684;2023-08-06T07:24:10;97507.22;;;27.20;56.01
22753;BME280;11543;43.144;24.684;2023-08-06T07:26:37;97494.13;;;27.12;60.08
22753;BME280;11543;43.144;24.684;2023-08-06T07:29:02;97485.06;;;26.83;61.67
22753;BME280;11543;43.144;24.684;2023-08-06T07:31:28;97500.75;;;26.58;63.03
22753;BME280;11543;43.144;24.684;2023-08-06T07:33:53;97498.44;;;26.08;65.05
22753;BME280;11543;43.144;24.684;2023-08-06T07:36:19;97529.25;;;25.99;65.68
22753;BME280;11543;43.144;24.684;2023-08-06T07:38:44;97520.84;;;25.86;65.99
22753;BME280;11543;43.144;24.684;2023-08-06T07:41:10;97532.22;;;25.69;66.51
22753;BME280;11543;43.144;24.684;2023-08-06T07:43:35;97510.47;;;25.28;67.47
22753;BME280;11543;43.144;24.684;2023-08-06T07:46:01;97516.31;;;25.01;68.33
22753;BME280;11543;43.144;24.684;2023-08-06T07:48:27;97530.88;;;24.87;69.21
22753;BME280;11543;43.144;24.684;2023-08-06T07:50:56;97553.94;;;24.81;69.41
22753;BME280;11543;43.144;24.684;2023-08-06T07:53:23;97554.50;;;24.77;69.26
22753;BME280;11543;43.144;24.684;2023-08-06T07:55:50;97553.94;;;24.86;69.13
22753;BME280;11543;43.144;24.684;2023-08-06T07:58:16;97539.72;;;24.58;70.18
22753;BME280;11543;43.144;24.684;2023-08-06T08:00:42;97572.63;;;24.63;70.28
22753;BME280;11543;43.144;24.684;2023-08-06T08:03:13;97553.72;;;24.57;70.80
22753;BME280;11543;43.144;24.684;2023-08-06T08:05:40;97557.28;;;24.52;72.68
22753;BME280;11543;43.144;24.684;2023-08-06T08:08:06;97544.44;;;24.32;74.00
22753;BME280;11543;43.144;24.684;2023-08-06T08:10:32;97555.66;;;24.31;74.53
22753;BME280;11543;43.144;24.684;2023-08-06T08:12:58;97547.72;;;24.29;73.91
22753;BME280;11543;43.144;24.684;2023-08-06T08:15:25;97548.00;;;24.33;73.44
22753;BME280;11543;43.144;24.684;2023-08-06T08:17:53;97565.53;;;24.37;72.82
22753;BME280;11543;43.144;24.684;2023-08-06T08:20:19;97571.00;;;24.42;72.85
22753;BME280;11543;43.144;24.684;2023-08-06T08:22:45;97564.44;;;24.38;73.06
22753;BME280;11543;43.144;24.684;2023-08-06T08:25:11;97563.34;;;24.29;72.53
22753;BME280;11543;43.144;24.684;2023-08-06T08:27:36;97580.88;;;24.33;72.57
22753;BME280;11543;43.144;24.684;2023-08-06T08:30:03;97597.34;;;24.43;71.95
22753;BME280;11543;43.144;24.684;2023-08-06T08:32:29;97591.84;;;24.33;72.51
22753;BME280;11543;43.144;24.684;2023-08-06T08:34:56;97573.75;;;24.32;72.80
22753;BME280;11543;43.144;24.684;2023-08-06T08:37:23;97601.72;;;24.29;72.78
22753;BME280;11543;43.144;24.684;2023-08-06T08:39:50;97599.97;;;23.97;73.59
22753;BME280;11543;43.144;24.684;2023-08-06T08:42:17;97591.50;;;23.99;73.24
22753;BME280;11543;43.144;24.684;2023-08-06T08:44:43;97585.72;;;23.95;73.40
22753;BME280;11543;43.144;24.684;2023-08-06T08:47:10;97608.75;;;23.99;73.29
22753;BME280;11543;43.144;24.684;2023-08-06T08:49:36;97607.59;;;23.75;74.77
22753;BME280;11543;43.144;24.684;2023-08-06T08:52:03;97625.66;;;23.66;75.05
22753;BME280;11543;43.144;24.684;2023-08-06T08:54:35;97640.97;;;23.62;75.57
22753;BME280;11543;43.144;24.684;2023-08-06T08:57:03;97632.69;;;23.51;75.59
22753;BME280;11543;43.144;24.684;2023-08-06T08:59:28;97623.44;;;23.58;74.93
22753;BME280;11543;43.144;24.684;2023-08-06T09:01:54;97592.16;;;23.48;75.39
22753;BME280;11543;43.144;24.684;2023-08-06T09:04:20;97582.78;;;23.39;75.01
22753;BME280;11543;43.144;24.684;2023-08-06T09:06:50;97585.38;;;23.04;76.78
22753;BME280;11543;43.144;24.684;2023-08-06T09:09:24;97594.22;;;22.79;78.00
22753;BME280;11543;43.144;24.684;2023-08-06T09:11:51;97618.09;;;22.83;78.10
22753;BME280;11543;43.144;24.684;2023-08-06T09:14:19;97616.47;;;22.87;77.94
22753;BME280;11543;43.144;24.684;2023-08-06T09:16:45;97617.03;;;22.90;77.74
22753;BME280;11543;43.144;24.684;2023-08-06T09:19:13;97617.09;;;23.00;77.22
22753;BME280;11543;43.144;24.684;2023-08-06T09:21:41;97606.16;;;23.00;77.34
22753;BME280;11543;43.144;24.684;2023-08-06T09:24:08;97592.22;;;23.01;77.42
22753;BME280;11543;43.144;24.684;2023-08-06T09:26:34;97596.91;;;23.11;76.94
22753;BME280;11543;43.144;24.684;2023-08-06T09:28:59;97585.97;;;23.11;76.86
22753;BME280;11543;43.144;24.684;2023-08-06T09:31:32;97572.31;;;23.16;76.82
22753;BME280;11543;43.144;24.684;2023-08-06T09:34:02;97560.78;;;23.09;77.01
22753;BME280;11543;43.144;24.684;2023-08-06T09:36:27;97564.06;;;23.11;77.12
22753;BME280;11543;43.144;24.684;2023-08-06T09:38:53;97597.50;;;23.23;76.72
22753;BME280;11543;43.144;24.684;2023-08-06T09:41:27;97600.25;;;23.23;76.90
22753;BME280;11543;43.144;24.684;2023-08-06T09:43:55;97592.59;;;23.25;76.33
22753;BME280;11543;43.144;24.684;2023-08-06T09:46:21;97599.72;;;23.31;76.03
22753;BME280;11543;43.144;24.684;2023-08-06T09:48:48;97615.63;;;23.39;75.32
22753;BME280;11543;43.144;24.684;2023-08-06T09:51:16;97614.06;;;23.48;74.91
22753;BME280;11543;43.144;24.684;2023-08-06T09:53:42;97605.09;;;23.58;74.79
22753;BME280;11543;43.144;24.684;2023-08-06T09:56:10;97596.88;;;23.58;74.85
22753;BME280;11543;43.144;24.684;2023-08-06T09:58:38;97610.88;;;23.67;74.86
22753;BME280;11543;43.144;24.684;2023-08-06T10:01:04;97586.72;;;23.54;74.96
22753;BME280;11543;43.144;24.684;2023-08-06T10:03:32;97610.28;;;23.55;75.87
22753;BME280;11543;43.144;24.684;2023-08-06T10:05:59;97608.66;;;23.59;76.19
22753;BME280;11543;43.144;24.684;2023-08-06T10:08:27;97603.19;;;23.59;75.60
22753;BME280;11543;43.144;24.684;2023-08-06T10:10:52;97601.53;;;23.58;75.87
22753;BME280;11543;43.144;24.684;2023-08-06T10:13:19;97607.56;;;23.65;75.61
22753;BME280;11543;43.144;24.684;2023-08-06T10:15:47;97600.47;;;23.64;75.96
22753;BME280;11543;43.144;24.684;2023-08-06T10:18:18;97592.22;;;23.59;76.74
22753;BME280;11543;43.144;24.684;2023-08-06T10:20:46;97586.75;;;23.59;77.05
22753;BME280;11543;43.144;24.684;2023-08-06T10:23:12;97591.16;;;23.65;77.33
22753;BME280;11543;43.144;24.684;2023-08-06T10:25:43;97584.56;;;23.61;78.30
22753;BME280;11543;43.144;24.684;2023-08-06T10:28:10;97583.78;;;23.70;78.53
22753;BME280;11543;43.144;24.684;2023-08-06T10:30:45;97574.19;;;23.78;78.78
22753;BME280;11543;43.144;24.684;2023-08-06T10:33:11;97576.94;;;23.83;79.31
22753;BME280;11543;43.144;24.684;2023-08-06T10:38:18;97592.88;;;24.17;79.97
22753;BME280;11543;43.144;24.684;2023-08-06T10:43:33;97600.06;;;24.53;80.47
22753;BME280;11543;43.144;24.684;2023-08-06T10:46:03;97591.00;;;24.73;80.63
22753;BME280;11543;43.144;24.684;2023-08-06T10:48:35;97584.66;;;25.03;82.56
22753;BME280;11543;43.144;24.684;2023-08-06T10:51:07;97577.44;;;25.32;80.30
22753;BME280;11543;43.144;24.684;2023-08-06T10:53:34;97564.91;;;25.70;79.33
22753;BME280;11543;43.144;24.684;2023-08-06T10:56:02;97559.44;;;26.10;77.45
22753;BME280;11543;43.144;24.684;2023-08-06T10:58:33;97565.84;;;26.39;76.64
22753;BME280;11543;43.144;24.684;2023-08-06T11:00:59;97561.97;;;26.69;74.73
22753;BME280;11543;43.144;24.684;2023-08-06T11:03:27;97573.19;;;27.07;74.41
22753;BME280;11543;43.144;24.684;2023-08-06T11:05:52;97563.16;;;27.40;71.56
22753;BME280;11543;43.144;24.684;2023-08-06T11:08:40;97564.91;;;27.78;70.85
22753;BME280;11543;43.144;24.684;2023-08-06T11:11:13;97562.44;;;27.96;69.60
22753;BME280;11543;43.144;24.684;2023-08-06T11:13:43;97543.94;;;28.15;66.59
22753;BME280;11543;43.144;24.684;2023-08-06T11:16:14;97542.81;;;28.35;65.57
22753;BME280;11543;43.144;24.684;2023-08-06T11:18:40;97555.66;;;28.58;64.38
22753;BME280;11543;43.144;24.684;2023-08-06T11:21:07;97563.22;;;28.85;63.42
22753;BME280;11543;43.144;24.684;2023-08-06T11:23:34;97566.91;;;28.94;63.32
22753;BME280;11543;43.144;24.684;2023-08-06T11:26:01;97569.47;;;29.04;61.92
22753;BME280;11543;43.144;24.684;2023-08-06T11:28:26;97566.50;;;29.28;60.08
22753;BME280;11543;43.144;24.684;2023-08-06T11:30:53;97571.00;;;29.38;57.89
22753;BME280;11543;43.144;24.684;2023-08-06T11:33:28;97571.00;;;29.38;58.65
22753;BME280;11543;43.144;24.684;2023-08-06T11:35:55;97565.47;;;29.38;59.19
22753;BME280;11543;43.144;24.684;2023-08-06T11:38:21;97563.34;;;29.35;58.05
22753;BME280;11543;43.144;24.684;2023-08-06T11:40:50;97564.72;;;29.51;58.25
22753;BME280;11543;43.144;24.684;2023-08-06T11:43:16;97568.78;;;29.67;59.47
22753;BME280;11543;43.144;24.684;2023-08-06T11:45:43;97574.59;;;29.79;54.79
22753;BME280;11543;43.144;24.684;2023-08-06T11:48:09;97561.91;;;29.78;56.23
22753;BME280;11543;43.144;24.684;2023-08-06T11:50:37;97566.88;;;29.90;54.85
22753;BME280;11543;43.144;24.684;2023-08-06T11:53:04;97571.97;;;29.97;55.60
22753;BME280;11543;43.144;24.684;2023-08-06T11:55:30;97576.28;;;30.03;54.40
22753;BME280;11543;43.144;24.684;2023-08-06T11:57:57;97570.34;;;30.09;53.84
22753;BME280;11543;43.144;24.684;2023-08-06T12:00:24;97569.84;;;30.07;56.11
22753;BME280;11543;43.144;24.684;2023-08-06T12:02:50;97577.69;;;30.14;53.99
22753;BME280;11543;43.144;24.684;2023-08-06T12:05:28;97576.31;;;30.25;52.92
22753;BME280;11543;43.144;24.684;2023-08-06T12:07:58;97582.34;;;30.27;54.51
22753;BME280;11543;43.144;24.684;2023-08-06T12:10:28;97583.47;;;30.26;55.07
22753;BME280;11543;43.144;24.684;2023-08-06T12:12:54;97583.47;;;30.40;53.53
22753;BME280;11543;43.144;24.684;2023-08-06T12:15:22;97577.13;;;30.62;54.20
22753;BME280;11543;43.144;24.684;2023-08-06T12:17:49;97570.69;;;30.75;53.90
22753;BME280;11543;43.144;24.684;2023-08-06T12:20:15;97569.78;;;30.88;54.12
22753;BME280;11543;43.144;24.684;2023-08-06T12:22:41;97557.16;;;31.04;52.17
22753;BME280;11543;43.144;24.684;2023-08-06T12:25:11;97566.09;;;31.24;49.67
22753;BME280;11543;43.144;24.684;2023-08-06T12:27:44;97559.41;;;31.25;48.59
22753;BME280;11543;43.144;24.684;2023-08-06T12:30:10;97571.63;;;31.24;50.89
22753;BME280;11543;43.144;24.684;2023-08-06T12:32:37;97562.44;;;31.15;51.35
22753;BME280;11543;43.144;24.684;2023-08-06T12:35:03;97571.75;;;31.19;50.65
22753;BME280;11543;43.144;24.684;2023-08-06T12:37:28;97563.84;;;31.12;51.17
22753;BME280;11543;43.144;24.684;2023-08-06T12:39:54;97561.00;;;30.95;52.07
22753;BME280;11543;43.144;24.684;2023-08-06T12:42:22;97556.44;;;30.90;51.57
22753;BME280;11543;43.144;24.684;2023-08-06T12:44:51;97555.44;;;30.86;51.32
22753;BME280;11543;43.144;24.684;2023-08-06T12:47:17;97557.06;;;30.87;50.97
22753;BME280;11543;43.144;24.684;2023-08-06T12:49:43;97541.41;;;30.83;50.49
22753;BME280;11543;43.144;24.684;2023-08-06T12:52:08;97531.91;;;30.75;50.66
22753;BME280;11543;43.144;24.684;2023-08-06T12:54:35;97523.75;;;30.70;50.58
22753;BME280;11543;43.144;24.684;2023-08-06T12:57:04;97538.19;;;30.89;50.57
22753;BME280;11543;43.144;24.684;2023-08-06T12:59:29;97523.06;;;30.95;50.23
22753;BME280;11543;43.144;24.684;2023-08-06T13:01:55;97536.22;;;31.21;49.49